Time;durP1;ratioP1;P1;durP2;ratioP2;P2;SDS_P1;SDS_P2;PMS_P1;PMS_P2;Temp;Humidity;BMP_temperature;BMP_pressure;BME280_temperature;BME280_humidity;BME280_pressure;Samples;Min_cycle;Max_cycle;Signal;HPM_P1;HPM_P2
2023/01/05 00:01:36;;;;;;;16.93;4.93;;;11.80;99.90;;;;;;4972051;28;20924;-75
2023/01/05 00:04:03;;;;;;;11.80;4.20;;;11.80;99.90;;;;;;4958949;28;20461;-75
2023/01/05 00:06:30;;;;;;;8.63;3.87;;;11.80;99.90;;;;;;4992826;28;20772;-75
2023/01/05 00:08:58;;;;;;;24.23;4.97;;;11.80;99.90;;;;;;4988206;28;20480;-73
2023/01/05 00:22:50;;;;;;;18.10;4.70;;;11.70;99.90;;;;;;4973098;28;20406;-74
2023/01/05 00:25:21;;;;;;;15.17;4.30;;;11.70;99.90;;;;;;4979773;28;20460;-75
2023/01/05 00:27:58;;;;;;;18.53;5.10;;;11.70;99.90;;;;;;4990876;28;20449;-75
2023/01/05 00:30:47;;;;;;;16.30;4.60;;;11.80;99.90;;;;;;4971298;28;20792;-73
2023/01/05 00:33:15;;;;;;;17.40;5.50;;;11.80;99.90;;;;;;4982302;28;20456;-73
2023/01/05 00:35:41;;;;;;;18.83;4.40;;;11.70;99.90;;;;;;4974781;28;20434;-74
2023/01/05 00:38:08;;;;;;;19.07;4.20;;;11.70;99.90;;;;;;4971216;28;20464;-75
2023/01/05 00:40:34;;;;;;;11.70;3.93;;;11.70;99.90;;;;;;4990391;28;20429;-74
2023/01/05 00:43:01;;;;;;;12.87;4.60;;;11.70;99.90;;;;;;4975010;28;20433;-74
2023/01/05 00:45:27;;;;;;;20.73;4.93;;;11.70;99.90;;;;;;4991785;28;20417;-73
2023/01/05 00:47:54;;;;;;;13.00;5.17;;;11.70;99.90;;;;;;4974197;28;20441;-73
2023/01/05 00:50:23;;;;;;;14.77;4.80;;;11.80;99.90;;;;;;4975401;28;20466;-73
2023/01/05 00:52:49;;;;;;;14.77;7.03;;;11.80;99.90;;;;;;4979782;23;20437;-74
2023/01/05 00:55:17;;;;;;;13.60;5.20;;;11.80;99.90;;;;;;4953477;28;20450;-74
2023/01/05 00:57:45;;;;;;;15.90;4.57;;;11.80;99.90;;;;;;4955816;28;20791;-74
2023/01/05 01:00:18;;;;;;;12.50;4.70;;;11.80;99.90;;;;;;4971770;28;20521;-74
2023/01/05 01:02:45;;;;;;;15.00;5.27;;;11.80;99.90;;;;;;4971482;28;20441;-74
2023/01/05 01:05:11;;;;;;;10.50;4.30;;;11.70;99.90;;;;;;4958530;28;20436;-74
2023/01/05 01:07:37;;;;;;;15.13;4.37;;;11.70;99.90;;;;;;4967021;28;20697;-75
2023/01/05 01:10:11;;;;;;;15.33;4.80;;;11.70;99.90;;;;;;4942633;29;20516;-75
2023/01/05 01:12:40;;;;;;;16.77;4.97;;;11.70;99.90;;;;;;4940516;28;20446;-74
2023/01/05 01:15:10;;;;;;;13.40;4.80;;;11.70;99.90;;;;;;4955670;28;20425;-74
2023/01/05 01:17:36;;;;;;;16.90;5.10;;;11.70;99.90;;;;;;4969454;28;20476;-74
2023/01/05 01:20:02;;;;;;;13.80;4.87;;;11.70;99.90;;;;;;4968273;28;20470;-74
2023/01/05 01:22:31;;;;;;;18.20;5.10;;;11.70;99.90;;;;;;4990356;28;21029;-75
2023/01/05 01:25:00;;;;;;;16.27;4.97;;;11.70;99.90;;;;;;4951347;28;20455;-75
2023/01/05 01:27:28;;;;;;;11.90;4.90;;;11.70;99.90;;;;;;4952284;29;20419;-75
2023/01/05 01:29:54;;;;;;;15.33;4.40;;;11.70;99.90;;;;;;4951600;29;20534;-74
2023/01/05 01:32:23;;;;;;;15.27;4.07;;;11.70;99.90;;;;;;4920658;29;20505;-74
2023/01/05 01:34:49;;;;;;;10.50;3.80;;;11.70;99.90;;;;;;4936383;29;21067;-75
2023/01/05 01:37:19;;;;;;;16.07;4.30;;;11.70;99.90;;;;;;4946369;28;20456;-75
2023/01/05 01:39:51;;;;;;;16.10;4.20;;;11.70;99.90;;;;;;4953592;28;20473;-75
2023/01/05 01:42:22;;;;;;;10.53;4.10;;;11.70;99.90;;;;;;4936250;29;20424;-74
2023/01/05 01:44:53;;;;;;;19.80;4.97;;;11.70;99.90;;;;;;4936401;29;20451;-75
2023/01/05 01:47:30;;;;;;;16.30;4.17;;;11.70;99.90;;;;;;4920607;29;20882;-75
2023/01/05 01:50:17;;;;;;;18.73;4.53;;;11.70;99.90;;;;;;4940394;28;20525;-75
2023/01/05 01:52:45;;;;;;;13.77;4.20;;;11.70;99.90;;;;;;4956166;28;21011;-75
2023/01/05 01:55:19;;;;;;;20.63;4.93;;;11.70;99.90;;;;;;4973624;28;20517;-75
2023/01/05 01:57:48;;;;;;;16.57;4.50;;;11.70;99.90;;;;;;4976753;28;20484;-75
2023/01/05 02:00:14;;;;;;;18.43;5.60;;;11.70;99.90;;;;;;4941598;29;20486;-74
2023/01/05 02:02:47;;;;;;;19.60;4.67;;;11.70;99.90;;;;;;4955332;28;20831;-74
2023/01/05 02:05:20;;;;;;;16.97;4.30;;;11.70;99.90;;;;;;4973187;28;20461;-74
2023/01/05 02:07:47;;;;;;;18.00;4.70;;;11.70;99.90;;;;;;4954960;29;20486;-74
2023/01/05 02:10:17;;;;;;;11.23;3.93;;;11.70;99.90;;;;;;4955058;29;20439;-74
2023/01/05 02:13:09;;;;;;;20.90;5.40;;;11.70;99.90;;;;;;4952287;28;20465;-74
2023/01/05 02:15:44;;;;;;;14.83;4.23;;;11.70;99.90;;;;;;4968686;28;20739;-74
2023/01/05 02:18:51;;;;;;;14.67;4.10;;;11.70;99.90;;;;;;4939151;28;20445;-74
2023/01/05 02:21:43;;;;;;;12.80;4.77;;;11.70;99.90;;;;;;4952870;28;20472;-74
2023/01/05 02:24:33;;;;;;;15.73;5.10;;;11.70;99.90;;;;;;4899512;29;20500;-74
2023/01/05 02:27:26;;;;;;;21.80;5.57;;;11.70;99.90;;;;;;4915288;29;20504;-74
2023/01/05 02:30:20;;;;;;;16.10;4.80;;;11.70;99.90;;;;;;4915371;29;20440;-74
2023/01/05 02:32:55;;;;;;;12.00;4.13;;;11.70;99.90;;;;;;4928210;29;20460;-74
2023/01/05 02:35:44;;;;;;;13.90;4.97;;;11.60;99.90;;;;;;4934287;29;20530;-74
2023/01/05 02:38:32;;;;;;;14.40;4.40;;;11.60;99.90;;;;;;4934228;29;20984;-75
2023/01/05 02:41:20;;;;;;;16.30;5.30;;;11.60;99.90;;;;;;4920161;29;21059;-75
2023/01/05 02:43:46;;;;;;;13.37;4.03;;;11.60;99.90;;;;;;4914848;29;20447;-75
2023/01/05 02:46:12;;;;;;;23.83;5.13;;;11.60;99.90;;;;;;4884067;29;20410;-74
2023/01/05 02:48:40;;;;;;;17.40;6.00;;;11.60;99.90;;;;;;4899482;29;20425;-74
2023/01/05 02:51:22;;;;;;;17.73;5.00;;;11.60;99.90;;;;;;4899242;29;20528;-74
2023/01/05 02:53:55;;;;;;;16.37;5.27;;;11.60;99.90;;;;;;4883552;29;20483;-74
2023/01/05 02:56:27;;;;;;;19.23;5.10;;;11.60;99.90;;;;;;4914585;29;20447;-74
2023/01/05 02:59:11;;;;;;;18.13;4.80;;;11.60;99.90;;;;;;4918139;29;20467;-75
2023/01/05 03:01:45;;;;;;;15.60;5.60;;;11.60;99.90;;;;;;4957464;28;20436;-74
2023/01/05 03:04:23;;;;;;;18.93;5.50;;;11.60;99.90;;;;;;4952899;28;20451;-74
2023/01/05 03:06:56;;;;;;;12.77;4.80;;;11.60;99.90;;;;;;4938675;29;20434;-74
2023/01/05 03:09:35;;;;;;;13.93;5.00;;;11.60;99.90;;;;;;4945763;28;20501;-74
2023/01/05 03:15:32;;;;;;;24.50;6.00;;;11.60;99.90;;;;;;4972671;28;20481;-74
2023/01/05 03:18:09;;;;;;;22.33;5.70;;;11.60;99.90;;;;;;4974331;28;20422;-74
2023/01/05 03:20:51;;;;;;;21.73;5.50;;;11.60;99.90;;;;;;4983865;28;20461;-73
2023/01/05 03:37:42;;;;;;;18.63;6.27;;;11.60;99.90;;;;;;4953466;28;20448;-75
2023/01/05 03:40:29;;;;;;;13.53;5.93;;;11.60;99.90;;;;;;4953305;29;20813;-74
2023/01/05 03:42:59;;;;;;;13.47;5.17;;;11.60;99.90;;;;;;4958762;28;20442;-75
2023/01/05 03:45:42;;;;;;;18.67;5.10;;;11.60;99.90;;;;;;4972766;28;20469;-75
2023/01/05 03:48:13;;;;;;;15.40;6.17;;;11.60;99.90;;;;;;4972486;28;20446;-74
2023/01/05 03:50:39;;;;;;;15.10;5.30;;;11.60;99.90;;;;;;4955903;28;20598;-74
2023/01/05 03:53:10;;;;;;;16.13;4.77;;;11.60;99.90;;;;;;4972335;28;20447;-74
2023/01/05 03:55:37;;;;;;;20.10;5.50;;;11.60;99.90;;;;;;4952659;29;20519;-74
2023/01/05 03:58:03;;;;;;;17.27;5.17;;;11.60;99.90;;;;;;4942294;28;20431;-74
2023/01/05 04:00:31;;;;;;;15.53;4.57;;;11.60;99.90;;;;;;4939975;28;20441;-74
2023/01/05 04:03:02;;;;;;;15.33;5.23;;;11.60;99.90;;;;;;4941510;28;20499;-74
2023/01/05 04:05:28;;;;;;;16.40;5.37;;;11.60;99.90;;;;;;4972484;28;20398;-73
2023/01/05 04:07:57;;;;;;;13.47;4.97;;;11.60;99.90;;;;;;4972300;28;20572;-75
2023/01/05 04:10:25;;;;;;;12.60;4.67;;;11.60;99.90;;;;;;4972328;28;20412;-74
2023/01/05 04:12:53;;;;;;;10.90;5.03;;;11.60;99.90;;;;;;4956130;28;20497;-74
2023/01/05 04:15:21;;;;;;;20.20;4.97;;;11.60;99.90;;;;;;4971866;28;20459;-75
2023/01/05 04:17:50;;;;;;;13.17;5.53;;;11.60;99.90;;;;;;4952999;28;20537;-75
2023/01/05 04:20:16;;;;;;;24.57;5.93;;;11.60;99.90;;;;;;4936777;29;20488;-74
2023/01/05 04:22:42;;;;;;;12.13;4.97;;;11.60;99.90;;;;;;4936744;29;20419;-74
2023/01/05 04:25:09;;;;;;;24.13;5.90;;;11.60;99.90;;;;;;4959972;28;20441;-74
2023/01/05 04:27:35;;;;;;;16.03;4.80;;;11.60;99.90;;;;;;4946886;28;20488;-74
2023/01/05 04:30:06;;;;;;;13.30;5.23;;;11.60;99.90;;;;;;4975603;28;20434;-74
2023/01/05 04:32:41;;;;;;;16.37;5.70;;;11.60;99.90;;;;;;4943714;28;21000;-74
2023/01/05 04:35:22;;;;;;;20.57;5.90;;;11.60;99.90;;;;;;4952709;29;20411;-74
2023/01/05 04:37:50;;;;;;;16.30;5.10;;;11.60;99.90;;;;;;4936956;29;20981;-75
2023/01/05 04:40:16;;;;;;;15.00;5.00;;;11.60;99.90;;;;;;4936331;29;20483;-75
2023/01/05 04:42:51;;;;;;;18.33;6.17;;;11.60;99.90;;;;;;4953624;28;20958;-75
2023/01/05 04:45:20;;;;;;;17.57;5.73;;;11.60;99.90;;;;;;4971844;28;20760;-75
2023/01/05 04:47:51;;;;;;;17.03;6.10;;;11.60;99.90;;;;;;4956192;28;20886;-74
2023/01/05 04:50:29;;;;;;;22.10;5.40;;;11.60;99.90;;;;;;4956761;28;20429;-74
2023/01/05 04:52:59;;;;;;;20.40;5.47;;;11.60;99.90;;;;;;4955592;28;20804;-74
2023/01/05 04:55:31;;;;;;;15.10;5.40;;;11.50;99.90;;;;;;4982212;28;20787;-74
2023/01/05 04:57:58;;;;;;;16.17;5.70;;;11.50;99.90;;;;;;4975105;28;20419;-75
2023/01/05 05:00:30;;;;;;;17.93;4.73;;;11.50;99.90;;;;;;4990467;28;20866;-74
2023/01/05 05:02:58;;;;;;;24.20;6.17;;;11.50;99.90;;;;;;4973056;28;20632;-74
2023/01/05 05:05:24;;;;;;;15.47;4.40;;;11.50;99.90;;;;;;4955506;28;20434;-74
2023/01/05 05:07:55;;;;;;;23.20;6.13;;;11.50;99.90;;;;;;4955653;28;20424;-74
2023/01/05 05:10:25;;;;;;;20.20;5.80;;;11.50;99.90;;;;;;4955647;28;20452;-73
2023/01/05 05:12:56;;;;;;;13.57;4.60;;;11.50;99.90;;;;;;4952948;28;20454;-74
2023/01/05 05:15:23;;;;;;;19.10;5.00;;;11.50;99.90;;;;;;4955598;28;20427;-74
2023/01/05 05:17:51;;;;;;;17.73;5.30;;;11.50;99.90;;;;;;4971274;28;20505;-74
2023/01/05 05:20:17;;;;;;;12.50;4.87;;;11.50;99.90;;;;;;4970896;28;20479;-74
2023/01/05 05:22:45;;;;;;;15.17;5.50;;;11.50;99.90;;;;;;4970888;28;20523;-74
2023/01/05 05:25:15;;;;;;;17.40;4.77;;;11.50;99.90;;;;;;4936289;29;21036;-74
2023/01/05 05:27:45;;;;;;;13.87;4.50;;;11.50;99.90;;;;;;4938203;29;20416;-73
2023/01/05 05:30:14;;;;;;;17.97;4.80;;;11.50;99.90;;;;;;4971313;28;20880;-74
2023/01/05 05:32:40;;;;;;;13.97;4.53;;;11.50;99.90;;;;;;4974922;28;20455;-74
2023/01/05 05:35:07;;;;;;;17.00;5.10;;;11.50;99.90;;;;;;4976071;28;20406;-74
2023/01/05 05:37:33;;;;;;;14.70;5.57;;;11.40;99.90;;;;;;4959158;28;20531;-74
2023/01/05 05:40:03;;;;;;;18.27;5.90;;;11.40;99.90;;;;;;4949982;28;20453;-76
2023/01/05 05:42:35;;;;;;;20.27;4.43;;;11.50;99.90;;;;;;4962565;28;20481;-75
2023/01/05 05:45:01;;;;;;;19.63;5.67;;;11.50;99.90;;;;;;4984308;28;20511;-74
2023/01/05 05:47:29;;;;;;;22.80;7.67;;;11.50;99.90;;;;;;4975434;28;20502;-75
2023/01/05 05:49:57;;;;;;;20.50;5.13;;;11.50;99.90;;;;;;4974901;28;20418;-74
2023/01/05 05:52:23;;;;;;;18.17;5.50;;;11.40;99.90;;;;;;4975068;28;20951;-73
2023/01/05 05:55:02;;;;;;;18.23;4.97;;;11.40;99.90;;;;;;4942714;28;20488;-74
2023/01/05 05:57:31;;;;;;;13.47;5.03;;;11.40;99.90;;;;;;4958665;28;20531;-74
2023/01/05 05:59:57;;;;;;;16.13;4.83;;;11.40;99.90;;;;;;4975571;28;20442;-74
2023/01/05 06:02:24;;;;;;;20.73;5.23;;;11.50;99.90;;;;;;4974561;28;20454;-75
2023/01/05 06:04:52;;;;;;;12.47;4.20;;;11.50;99.90;;;;;;4958611;28;20437;-74
2023/01/05 06:07:19;;;;;;;19.20;4.70;;;11.50;99.90;;;;;;4954934;28;20443;-73
2023/01/05 06:09:46;;;;;;;18.80;5.13;;;11.40;99.90;;;;;;4969205;28;20791;-73
2023/01/05 06:12:14;;;;;;;18.70;5.20;;;11.40;99.90;;;;;;4958518;28;20459;-75
2023/01/05 06:15:03;;;;;;;18.73;4.60;;;11.40;99.90;;;;;;4974167;28;20450;-74
2023/01/05 06:17:30;;;;;;;30.73;7.77;;;11.40;99.90;;;;;;4958483;28;20533;-73
2023/01/05 06:20:05;;;;;;;19.43;5.17;;;11.40;99.90;;;;;;4974034;28;20538;-75
2023/01/05 06:22:33;;;;;;;23.37;5.37;;;11.40;99.90;;;;;;4973519;28;20248;-74
2023/01/05 06:25:03;;;;;;;18.03;5.07;;;11.40;99.90;;;;;;4974174;28;20434;-74
2023/01/05 06:27:33;;;;;;;15.87;4.63;;;11.40;99.90;;;;;;4974747;28;20438;-74
2023/01/05 06:29:59;;;;;;;23.23;5.93;;;11.40;99.90;;;;;;4942097;28;20433;-73
2023/01/05 06:32:29;;;;;;;12.47;4.60;;;11.40;99.90;;;;;;4974286;28;20424;-74
2023/01/05 06:34:55;;;;;;;13.90;5.03;;;11.40;99.90;;;;;;4973951;28;20812;-74
2023/01/05 06:37:21;;;;;;;20.33;4.60;;;11.40;99.90;;;;;;4957436;28;20442;-74
2023/01/05 06:40:05;;;;;;;18.47;5.00;;;11.40;99.90;;;;;;4957619;28;20553;-74
2023/01/05 06:42:34;;;;;;;11.30;4.73;;;11.40;99.90;;;;;;4973315;28;20466;-73
2023/01/05 06:45:00;;;;;;;24.77;5.33;;;11.40;99.90;;;;;;4974368;28;20876;-74
2023/01/05 06:47:26;;;;;;;15.60;5.00;;;11.40;99.90;;;;;;4954050;28;20551;-73
2023/01/05 06:50:03;;;;;;;23.40;4.80;;;11.40;99.90;;;;;;4955940;28;20411;-74
2023/01/05 06:52:39;;;;;;;19.30;5.50;;;11.40;99.90;;;;;;4955104;29;20418;-74
2023/01/05 06:55:09;;;;;;;17.03;5.40;;;11.40;99.90;;;;;;4938066;29;20466;-74
2023/01/05 06:57:35;;;;;;;18.73;5.97;;;11.40;99.90;;;;;;4954552;29;20454;-75
2023/01/05 07:00:09;;;;;;;15.63;5.27;;;11.40;99.90;;;;;;4954276;29;20480;-75
2023/01/05 07:02:37;;;;;;;18.90;5.13;;;11.40;99.90;;;;;;4958078;28;20434;-74
2023/01/05 07:05:12;;;;;;;24.67;7.47;;;11.40;99.90;;;;;;4973238;28;20457;-74
2023/01/05 07:07:41;;;;;;;12.30;4.80;;;11.30;99.90;;;;;;4973398;28;20423;-74
2023/01/05 07:10:07;;;;;;;17.60;6.67;;;11.40;99.90;;;;;;4941264;28;20411;-74
2023/01/05 07:12:33;;;;;;;19.10;4.93;;;11.40;99.90;;;;;;4972793;28;20473;-74
2023/01/05 07:14:59;;;;;;;23.13;5.93;;;11.40;99.90;;;;;;4957486;28;20448;-74
2023/01/05 07:17:30;;;;;;;18.40;6.70;;;11.40;99.90;;;;;;4942153;28;20418;-74
2023/01/05 07:20:00;;;;;;;18.03;5.87;;;11.30;99.90;;;;;;4957584;28;20861;-74
2023/01/05 07:22:29;;;;;;;23.00;6.10;;;11.30;99.90;;;;;;4972831;28;20444;-74
2023/01/05 07:25:00;;;;;;;19.67;5.20;;;11.30;99.90;;;;;;4979840;28;20495;-75
2023/01/05 07:27:26;;;;;;;15.40;4.83;;;11.40;99.90;;;;;;4990879;28;20444;-75
2023/01/05 07:29:52;;;;;;;17.27;5.23;;;11.30;99.90;;;;;;4973816;28;20866;-74
2023/01/05 07:32:22;;;;;;;20.30;6.00;;;11.30;99.90;;;;;;4957791;28;20428;-73
2023/01/05 07:34:48;;;;;;;22.30;6.17;;;11.30;99.90;;;;;;4971990;28;20463;-73
2023/01/05 07:37:15;;;;;;;17.60;5.60;;;11.30;99.90;;;;;;4955252;28;20414;-73
2023/01/05 07:39:41;;;;;;;16.13;5.60;;;11.30;99.90;;;;;;4972013;28;20532;-74
2023/01/05 07:42:10;;;;;;;20.23;6.43;;;11.30;99.90;;;;;;4972360;28;20597;-75
2023/01/05 07:44:38;;;;;;;18.90;5.50;;;11.30;99.90;;;;;;4957206;28;20462;-74
2023/01/05 07:47:07;;;;;;;21.27;6.43;;;11.30;99.90;;;;;;4971849;28;20954;-74
2023/01/05 07:49:39;;;;;;;14.63;5.40;;;11.30;99.90;;;;;;4973360;28;20966;-74
2023/01/05 07:52:14;;;;;;;19.83;6.43;;;11.30;99.90;;;;;;4936899;29;20458;-74
2023/01/05 07:54:40;;;;;;;19.80;6.00;;;11.30;99.90;;;;;;4951877;29;20460;-75
2023/01/05 07:57:06;;;;;;;17.27;5.90;;;11.30;99.90;;;;;;4966925;28;20457;-74
2023/01/05 07:59:32;;;;;;;19.63;6.17;;;11.30;99.90;;;;;;4972014;28;20993;-75
2023/01/05 08:02:00;;;;;;;20.10;7.30;;;11.30;99.90;;;;;;4973131;28;20495;-74
2023/01/05 08:04:26;;;;;;;20.00;6.23;;;11.30;99.90;;;;;;4972796;28;20894;-74
2023/01/05 08:06:55;;;;;;;32.20;6.50;;;11.30;99.90;;;;;;4973598;28;20411;-75
2023/01/05 08:12:06;;;;;;;16.67;5.63;;;11.30;99.90;;;;;;4953005;29;20403;-74
2023/01/05 08:14:34;;;;;;;16.20;5.13;;;11.30;99.90;;;;;;4943699;28;20461;-75
2023/01/05 08:17:01;;;;;;;15.07;5.20;;;11.30;99.90;;;;;;4991349;28;20416;-74
2023/01/05 08:19:27;;;;;;;17.00;5.47;;;11.30;99.90;;;;;;4991557;28;20501;-74
2023/01/05 08:21:55;;;;;;;18.93;5.30;;;11.30;99.90;;;;;;4991694;28;20452;-74
2023/01/05 08:24:21;;;;;;;20.43;5.40;;;11.30;99.90;;;;;;4991240;28;20429;-74
2023/01/05 08:26:52;;;;;;;17.13;5.90;;;11.30;99.90;;;;;;4981665;28;20436;-74
2023/01/05 08:29:21;;;;;;;19.73;6.20;;;11.30;99.90;;;;;;4956028;28;20443;-74
2023/01/05 08:31:54;;;;;;;19.60;7.17;;;11.30;99.90;;;;;;4955500;28;20506;-74
2023/01/05 08:34:24;;;;;;;20.60;6.60;;;11.30;99.90;;;;;;4972199;28;20461;-75
2023/01/05 08:36:50;;;;;;;16.17;5.93;;;11.30;99.90;;;;;;4971050;28;20937;-75
2023/01/05 08:39:19;;;;;;;21.47;7.70;;;11.30;99.90;;;;;;4956054;28;20465;-74
2023/01/05 08:41:45;;;;;;;16.90;5.57;;;11.30;99.90;;;;;;4972539;28;20418;-74
2023/01/05 08:44:13;;;;;;;20.17;6.50;;;11.30;99.90;;;;;;4972833;28;20430;-74
2023/01/05 08:46:39;;;;;;;20.00;6.00;;;11.30;99.90;;;;;;4971951;28;20453;-74
2023/01/05 08:49:09;;;;;;;16.17;5.27;;;11.30;99.90;;;;;;4972751;28;20934;-74
2023/01/05 08:51:38;;;;;;;21.23;6.00;;;11.30;99.90;;;;;;4972973;28;20436;-74
2023/01/05 08:54:06;;;;;;;17.30;6.03;;;11.30;99.90;;;;;;4955440;28;20489;-74
2023/01/05 08:56:35;;;;;;;15.60;5.57;;;11.30;99.90;;;;;;4952536;29;20948;-74
2023/01/05 08:59:01;;;;;;;22.47;5.90;;;11.30;99.90;;;;;;4953628;29;20538;-74
2023/01/05 09:01:30;;;;;;;15.73;6.10;;;11.30;99.90;;;;;;4953014;28;20419;-75
2023/01/05 09:03:56;;;;;;;22.53;6.10;;;11.30;99.90;;;;;;4965206;28;20446;-74
2023/01/05 09:06:26;;;;;;;22.30;6.10;;;11.30;99.90;;;;;;4976027;28;20435;-74
2023/01/05 09:08:55;;;;;;;18.87;5.83;;;11.30;99.90;;;;;;4975483;28;20445;-74
2023/01/05 09:11:26;;;;;;;13.00;5.93;;;11.30;99.90;;;;;;4959477;28;20473;-74
2023/01/05 09:13:55;;;;;;;16.47;6.53;;;11.30;99.90;;;;;;4976919;28;20441;-74
2023/01/05 09:16:26;;;;;;;17.93;5.93;;;11.30;99.90;;;;;;4976724;28;20967;-75
2023/01/05 09:18:52;;;;;;;21.17;6.80;;;11.30;99.90;;;;;;4949107;28;20474;-75
2023/01/05 09:21:20;;;;;;;20.13;6.90;;;11.30;99.90;;;;;;4957732;28;20392;-75
2023/01/05 09:23:49;;;;;;;15.40;6.30;;;11.30;99.90;;;;;;4972680;28;20461;-75
2023/01/05 09:26:17;;;;;;;14.57;5.77;;;11.30;99.90;;;;;;4940955;29;20912;-75
2023/01/05 09:28:50;;;;;;;15.60;6.43;;;11.30;99.90;;;;;;4984428;28;20548;-75
2023/01/05 09:31:21;;;;;;;14.80;5.30;;;11.30;99.90;;;;;;4996040;28;20933;-75
2023/01/05 09:33:52;;;;;;;24.40;6.50;;;11.30;99.90;;;;;;4968566;28;21004;-75
2023/01/05 09:36:19;;;;;;;19.93;6.27;;;11.30;99.90;;;;;;4972258;28;20446;-75
2023/01/05 09:38:50;;;;;;;14.83;5.83;;;11.30;99.90;;;;;;4965783;28;20852;-75
2023/01/05 09:41:24;;;;;;;18.83;5.90;;;11.30;99.90;;;;;;4943198;28;20407;-75
2023/01/05 09:44:31;;;;;;;18.50;6.47;;;11.30;99.90;;;;;;4975721;28;20473;-75
2023/01/05 09:47:33;;;;;;;20.77;7.10;;;11.30;99.90;;;;;;4959687;28;20422;-75
2023/01/05 09:50:07;;;;;;;25.10;6.97;;;11.30;99.90;;;;;;4975674;28;20544;-75
2023/01/05 09:52:35;;;;;;;17.50;5.80;;;11.30;99.90;;;;;;4959331;28;20421;-75
2023/01/05 09:55:22;;;;;;;20.57;6.30;;;11.30;99.90;;;;;;4943266;28;20498;-75
2023/01/05 09:57:56;;;;;;;17.73;6.03;;;11.30;99.90;;;;;;4966526;28;20533;-75
2023/01/05 10:00:27;;;;;;;20.03;6.23;;;11.30;99.90;;;;;;4956971;29;20467;-75
2023/01/05 10:03:08;;;;;;;16.87;7.00;;;11.30;99.90;;;;;;4963701;28;20864;-75
2023/01/05 10:05:44;;;;;;;13.67;6.23;;;11.30;99.90;;;;;;4975273;28;20745;-74
2023/01/05 10:08:18;;;;;;;22.27;7.00;;;11.30;99.90;;;;;;4974860;28;20484;-75
2023/01/05 10:14:25;;;;;;;22.03;5.90;;;11.30;99.90;;;;;;4958895;28;20548;-75
2023/01/05 10:16:54;;;;;;;21.47;6.10;;;11.30;99.90;;;;;;4969460;28;20422;-75
2023/01/05 10:19:20;;;;;;;16.13;6.60;;;11.30;99.90;;;;;;4955215;28;21012;-75
2023/01/05 10:22:15;;;;;;;19.37;6.20;;;11.30;99.90;;;;;;4939452;29;20401;-74
2023/01/05 10:25:07;;;;;;;14.80;5.53;;;11.30;99.90;;;;;;4935804;29;20446;-75
2023/01/05 10:28:00;;;;;;;21.80;7.23;;;11.40;99.90;;;;;;4939581;29;20555;-75
2023/01/05 10:30:41;;;;;;;20.20;6.70;;;11.40;99.90;;;;;;4955266;29;20423;-75
2023/01/05 10:33:22;;;;;;;19.93;6.20;;;11.30;99.90;;;;;;4974469;28;21020;-75
2023/01/05 10:36:08;;;;;;;18.67;5.40;;;11.30;99.90;;;;;;4975062;28;20434;-75
2023/01/05 10:38:34;;;;;;;17.53;5.93;;;11.40;99.90;;;;;;4974535;28;20829;-76
2023/01/05 10:41:00;;;;;;;24.43;6.73;;;11.40;99.90;;;;;;4958315;28;20405;-75
2023/01/05 10:43:55;;;;;;;19.63;6.67;;;11.30;99.90;;;;;;4974600;28;20992;-76
2023/01/05 10:46:23;;;;;;;24.07;7.50;;;11.40;99.90;;;;;;4929604;28;20424;-76
2023/01/05 10:48:49;;;;;;;20.00;6.10;;;11.40;99.90;;;;;;4972907;28;20429;-76
2023/01/05 10:51:17;;;;;;;22.60;7.63;;;11.40;99.90;;;;;;4955357;28;20431;-76
2023/01/05 10:53:44;;;;;;;26.03;7.00;;;11.40;99.90;;;;;;4953396;28;20462;-75
2023/01/05 10:56:22;;;;;;;18.20;6.70;;;11.40;99.90;;;;;;4937953;29;20419;-73
2023/01/05 10:59:06;;;;;;;17.40;7.50;;;11.40;99.90;;;;;;4953686;29;20528;-74
2023/01/05 11:01:34;;;;;;;17.57;6.90;;;11.40;99.90;;;;;;4953849;29;20427;-75
2023/01/05 11:04:11;;;;;;;19.07;6.50;;;11.40;99.90;;;;;;4983709;28;20493;-75
2023/01/05 11:06:42;;;;;;;18.97;6.80;;;11.40;99.90;;;;;;4955107;28;20557;-74
2023/01/05 11:09:14;;;;;;;25.03;7.43;;;11.40;99.90;;;;;;4970440;28;20788;-75
2023/01/05 11:11:55;;;;;;;16.50;6.13;;;11.40;99.90;;;;;;4970446;28;20441;-74
2023/01/05 11:14:21;;;;;;;15.83;6.00;;;11.40;99.90;;;;;;4992795;28;20480;-74
2023/01/05 11:16:53;;;;;;;15.97;5.80;;;11.40;99.90;;;;;;4967358;28;20538;-74
2023/01/05 11:19:30;;;;;;;20.67;7.67;;;11.40;99.90;;;;;;4938880;29;20541;-75
2023/01/05 11:21:58;;;;;;;24.77;7.20;;;11.40;99.90;;;;;;4981316;28;20426;-76
2023/01/05 11:24:32;;;;;;;18.93;6.77;;;11.40;99.90;;;;;;4992883;28;20450;-73
2023/01/05 11:27:04;;;;;;;20.50;6.50;;;11.40;99.90;;;;;;4991402;28;20411;-73
2023/01/05 11:29:31;;;;;;;19.43;6.57;;;11.40;99.90;;;;;;4973727;28;20443;-73
2023/01/05 11:32:08;;;;;;;18.17;5.90;;;11.40;99.90;;;;;;4971861;28;20773;-75
2023/01/05 11:34:44;;;;;;;19.50;6.83;;;11.40;99.90;;;;;;4955097;28;20438;-76
2023/01/05 11:37:11;;;;;;;18.40;5.90;;;11.40;99.90;;;;;;4970917;28;21007;-75
2023/01/05 11:39:57;;;;;;;23.53;7.80;;;11.50;99.90;;;;;;4969639;28;20447;-73
2023/01/05 11:42:25;;;;;;;20.93;7.93;;;11.40;99.90;;;;;;4953258;28;20407;-73
2023/01/05 11:44:54;;;;;;;15.70;5.93;;;11.50;99.90;;;;;;4970066;28;20457;-73
2023/01/05 11:47:31;;;;;;;16.90;6.23;;;11.50;99.90;;;;;;4972015;28;20407;-73
2023/01/05 11:50:08;;;;;;;17.23;6.20;;;11.50;99.90;;;;;;4954154;28;20460;-74
2023/01/05 11:52:41;;;;;;;24.30;6.60;;;11.50;99.90;;;;;;4950967;28;20487;-73
2023/01/05 11:55:19;;;;;;;20.20;6.23;;;11.40;99.90;;;;;;4951250;28;20455;-73
2023/01/05 11:57:53;;;;;;;19.43;6.50;;;11.40;99.90;;;;;;4964054;28;20454;-73
2023/01/05 12:00:52;;;;;;;20.50;7.70;;;11.50;99.90;;;;;;4954164;28;20477;-73
2023/01/05 12:03:33;;;;;;;18.17;5.50;;;11.50;99.90;;;;;;4969961;28;20506;-73
2023/01/05 12:06:28;;;;;;;16.30;5.83;;;11.40;99.90;;;;;;4954540;28;20500;-73
2023/01/05 12:09:00;;;;;;;22.07;6.40;;;11.50;99.90;;;;;;4970012;28;20969;-73
2023/01/05 12:11:36;;;;;;;17.97;6.70;;;11.40;99.90;;;;;;4957091;28;20491;-73
2023/01/05 12:14:02;;;;;;;17.53;6.90;;;11.40;99.90;;;;;;4934855;29;20494;-73
2023/01/05 12:16:44;;;;;;;17.50;6.03;;;11.50;99.90;;;;;;4935014;29;20925;-73
2023/01/05 12:19:47;;;;;;;18.57;6.13;;;11.40;99.90;;;;;;4934861;29;20565;-72
2023/01/05 12:22:50;;;;;;;19.13;7.03;;;11.50;99.90;;;;;;4934882;29;20987;-73
2023/01/05 12:25:31;;;;;;;16.63;6.03;;;11.50;99.90;;;;;;4945689;28;20501;-73
2023/01/05 12:28:18;;;;;;;16.03;7.20;;;11.50;99.90;;;;;;4975637;28;20899;-73
2023/01/05 12:31:01;;;;;;;18.47;6.60;;;11.50;99.90;;;;;;4989180;28;20413;-73
2023/01/05 12:33:51;;;;;;;14.47;6.03;;;11.50;99.90;;;;;;4960550;28;20474;-73
2023/01/05 12:36:21;;;;;;;23.07;6.87;;;11.50;99.90;;;;;;4952063;28;20404;-73
2023/01/05 12:39:28;;;;;;;21.37;7.87;;;11.40;99.90;;;;;;4960688;28;20586;-73
2023/01/05 12:42:28;;;;;;;20.23;7.60;;;11.50;99.90;;;;;;4953731;28;20407;-72
2023/01/05 12:45:27;;;;;;;18.03;6.53;;;11.50;99.90;;;;;;4970227;28;20458;-73
2023/01/05 12:48:14;;;;;;;17.90;7.00;;;11.50;99.90;;;;;;4958420;28;20453;-73
2023/01/05 12:50:46;;;;;;;21.83;6.50;;;11.50;99.90;;;;;;4957834;28;20440;-73
2023/01/05 12:53:12;;;;;;;22.00;7.73;;;11.50;99.90;;;;;;4969638;28;20464;-73
2023/01/05 12:55:47;;;;;;;33.20;8.27;;;11.50;99.90;;;;;;4982408;28;20447;-73
2023/01/05 12:59:07;;;;;;;14.60;7.20;;;11.50;99.90;;;;;;4948395;29;20417;-73
2023/01/05 13:01:40;;;;;;;12.47;6.40;;;11.60;99.90;;;;;;4897805;29;20503;-73
2023/01/05 13:04:18;;;;;;;18.57;7.60;;;11.60;99.90;;;;;;4934996;29;20451;-76
2023/01/05 13:06:49;;;;;;;15.77;6.57;;;11.60;99.90;;;;;;4956047;28;20526;-73
2023/01/05 13:09:21;;;;;;;22.60;8.40;;;11.50;99.90;;;;;;4955528;28;20406;-74
2023/01/05 13:11:52;;;;;;;15.67;7.27;;;11.60;99.90;;;;;;4972685;28;20494;-73
2023/01/05 13:14:32;;;;;;;15.43;8.00;;;11.60;99.90;;;;;;4973104;28;20446;-74
2023/01/05 13:17:14;;;;;;;23.50;8.30;;;11.60;99.90;;;;;;4952130;28;20452;-72
2023/01/05 13:19:50;;;;;;;16.10;7.77;;;11.60;99.90;;;;;;4920566;29;21010;-72
2023/01/05 13:22:25;;;;;;;16.87;8.10;;;11.60;99.90;;;;;;4959732;28;20450;-74
2023/01/05 13:25:19;;;;;;;17.87;7.90;;;11.60;99.90;;;;;;4948417;28;20470;-73
2023/01/05 13:27:50;;;;;;;18.73;7.40;;;11.60;99.90;;;;;;4952669;29;20794;-74
2023/01/05 13:30:31;;;;;;;18.33;9.40;;;11.60;99.90;;;;;;4952134;29;20839;-73
2023/01/05 13:33:44;;;;;;;20.53;7.97;;;11.60;99.90;;;;;;4936531;29;20764;-74
2023/01/05 13:36:20;;;;;;;23.97;8.80;;;11.60;99.90;;;;;;4931326;28;20964;-73
2023/01/05 13:38:57;;;;;;;16.90;7.30;;;11.60;99.90;;;;;;4952017;29;20976;-74
2023/01/05 13:41:36;;;;;;;19.80;7.60;;;11.60;99.90;;;;;;4951465;29;20445;-73